sensor_id;sensor_type;location;lat;lon;timestamp;P1;durP1;ratioP1;P2;durP2;ratioP2
17564;SDS011;62994;52.126;5.596;2023-02-18T00:00:34;49.45;;;25.63;;
17564;SDS011;62994;52.126;5.596;2023-02-18T00:03:02;55.40;;;23.50;;
17564;SDS011;62994;52.126;5.596;2023-02-18T00:05:29;42.70;;;22.85;;
17564;SDS011;62994;52.126;5.596;2023-02-18T00:07:56;54.67;;;23.77;;
17564;SDS011;62994;52.126;5.596;2023-02-18T00:10:23;41.80;;;21.58;;
17564;SDS011;62994;52.126;5.596;2023-02-18T00:12:50;48.63;;;23.35;;
17564;SDS011;62994;52.126;5.596;2023-02-18T00:15:17;47.65;;;22.63;;
17564;SDS011;62994;52.126;5.596;2023-02-18T00:17:44;46.17;;;22.80;;
17564;SDS011;62994;52.126;5.596;2023-02-18T00:20:12;46.70;;;22.27;;
17564;SDS011;62994;52.126;5.596;2023-02-18T00:22:39;56.13;;;23.30;;
17564;SDS011;62994;52.126;5.596;2023-02-18T00:25:06;59.00;;;24.13;;
17564;SDS011;62994;52.126;5.596;2023-02-18T00:27:33;48.95;;;22.83;;
17564;SDS011;62994;52.126;5.596;2023-02-18T00:30:06;51.80;;;22.25;;
17564;SDS011;62994;52.126;5.596;2023-02-18T00:32:33;57.85;;;23.52;;
17564;SDS011;62994;52.126;5.596;2023-02-18T00:35:05;50.65;;;24.27;;
17564;SDS011;62994;52.126;5.596;2023-02-18T00:37:36;48.15;;;22.73;;
17564;SDS011;62994;52.126;5.596;2023-02-18T00:40:03;53.17;;;23.60;;
17564;SDS011;62994;52.126;5.596;2023-02-18T00:42:31;50.70;;;23.15;;
17564;SDS011;62994;52.126;5.596;2023-02-18T00:45:02;51.50;;;23.23;;
17564;SDS011;62994;52.126;5.596;2023-02-18T00:47:30;58.08;;;25.05;;
17564;SDS011;62994;52.126;5.596;2023-02-18T00:49:57;59.85;;;25.45;;
17564;SDS011;62994;52.126;5.596;2023-02-18T00:52:24;60.55;;;25.85;;
17564;SDS011;62994;52.126;5.596;2023-02-18T00:54:52;48.15;;;24.13;;
17564;SDS011;62994;52.126;5.596;2023-02-18T00:57:22;64.28;;;24.17;;
17564;SDS011;62994;52.126;5.596;2023-02-18T00:59:49;60.05;;;22.80;;
17564;SDS011;62994;52.126;5.596;2023-02-18T01:02:16;56.78;;;25.08;;
17564;SDS011;62994;52.126;5.596;2023-02-18T01:04:43;53.53;;;23.70;;
17564;SDS011;62994;52.126;5.596;2023-02-18T01:07:10;53.33;;;23.02;;
17564;SDS011;62994;52.126;5.596;2023-02-18T01:09:37;50.67;;;21.67;;
17564;SDS011;62994;52.126;5.596;2023-02-18T01:12:05;59.20;;;24.77;;
17564;SDS011;62994;52.126;5.596;2023-02-18T01:14:32;53.53;;;23.60;;
17564;SDS011;62994;52.126;5.596;2023-02-18T01:16:59;53.95;;;23.35;;
17564;SDS011;62994;52.126;5.596;2023-02-18T01:19:26;60.42;;;23.55;;
17564;SDS011;62994;52.126;5.596;2023-02-18T01:21:53;51.70;;;22.52;;
17564;SDS011;62994;52.126;5.596;2023-02-18T01:24:20;58.95;;;23.65;;
17564;SDS011;62994;52.126;5.596;2023-02-18T01:26:47;62.50;;;25.02;;
17564;SDS011;62994;52.126;5.596;2023-02-18T01:29:16;59.72;;;23.02;;
17564;SDS011;62994;52.126;5.596;2023-02-18T01:31:43;61.10;;;24.35;;
17564;SDS011;62994;52.126;5.596;2023-02-18T01:34:10;56.67;;;23.02;;
17564;SDS011;62994;52.126;5.596;2023-02-18T01:36:37;62.25;;;21.98;;
17564;SDS011;62994;52.126;5.596;2023-02-18T01:39:06;56.88;;;22.27;;
17564;SDS011;62994;52.126;5.596;2023-02-18T01:41:33;49.50;;;20.80;;
17564;SDS011;62994;52.126;5.596;2023-02-18T01:44:09;48.03;;;19.50;;
17564;SDS011;62994;52.126;5.596;2023-02-18T01:46:39;45.80;;;19.33;;
17564;SDS011;62994;52.126;5.596;2023-02-18T01:49:06;39.97;;;19.73;;
17564;SDS011;62994;52.126;5.596;2023-02-18T01:51:36;41.33;;;18.65;;
17564;SDS011;62994;52.126;5.596;2023-02-18T01:54:05;38.28;;;17.98;;
17564;SDS011;62994;52.126;5.596;2023-02-18T01:56:37;38.10;;;18.50;;
17564;SDS011;62994;52.126;5.596;2023-02-18T01:59:08;35.42;;;17.50;;
17564;SDS011;62994;52.126;5.596;2023-02-18T02:01:40;48.95;;;19.17;;
17564;SDS011;62994;52.126;5.596;2023-02-18T02:04:09;42.33;;;18.40;;
17564;SDS011;62994;52.126;5.596;2023-02-18T02:06:39;39.83;;;17.58;;
17564;SDS011;62994;52.126;5.596;2023-02-18T02:09:08;38.53;;;17.70;;
17564;SDS011;62994;52.126;5.596;2023-02-18T02:11:58;35.25;;;17.60;;
17564;SDS011;62994;52.126;5.596;2023-02-18T02:14:46;38.15;;;18.02;;
17564;SDS011;62994;52.126;5.596;2023-02-18T02:17:40;40.78;;;17.15;;
17564;SDS011;62994;52.126;5.596;2023-02-18T02:20:23;37.50;;;17.95;;
17564;SDS011;62994;52.126;5.596;2023-02-18T02:23:20;37.08;;;17.70;;
17564;SDS011;62994;52.126;5.596;2023-02-18T02:32:31;39.63;;;19.50;;
17564;SDS011;62994;52.126;5.596;2023-02-18T02:35:20;45.17;;;18.95;;
17564;SDS011;62994;52.126;5.596;2023-02-18T02:37:51;62.22;;;21.20;;
17564;SDS011;62994;52.126;5.596;2023-02-18T02:40:24;47.25;;;20.95;;
17564;SDS011;62994;52.126;5.596;2023-02-18T02:43:05;50.47;;;20.73;;
17564;SDS011;62994;52.126;5.596;2023-02-18T02:45:40;50.75;;;22.25;;
17564;SDS011;62994;52.126;5.596;2023-02-18T02:48:15;50.95;;;21.92;;
17564;SDS011;62994;52.126;5.596;2023-02-18T02:50:52;46.83;;;21.23;;
17564;SDS011;62994;52.126;5.596;2023-02-18T02:53:25;52.08;;;21.63;;
17564;SDS011;62994;52.126;5.596;2023-02-18T02:55:55;56.20;;;22.80;;
17564;SDS011;62994;52.126;5.596;2023-02-18T02:58:22;47.35;;;21.08;;
17564;SDS011;62994;52.126;5.596;2023-02-18T03:00:54;54.90;;;22.67;;
17564;SDS011;62994;52.126;5.596;2023-02-18T03:03:40;51.90;;;21.75;;
17564;SDS011;62994;52.126;5.596;2023-02-18T03:06:25;44.63;;;20.55;;
17564;SDS011;62994;52.126;5.596;2023-02-18T03:09:03;57.78;;;21.10;;
17564;SDS011;62994;52.126;5.596;2023-02-18T03:11:38;50.47;;;21.23;;
17564;SDS011;62994;52.126;5.596;2023-02-18T03:14:16;47.80;;;22.00;;
17564;SDS011;62994;52.126;5.596;2023-02-18T03:16:57;57.47;;;21.48;;
17564;SDS011;62994;52.126;5.596;2023-02-18T03:19:29;56.33;;;22.75;;
17564;SDS011;62994;52.126;5.596;2023-02-18T03:22:03;51.65;;;22.05;;
17564;SDS011;62994;52.126;5.596;2023-02-18T03:24:33;54.05;;;22.30;;
17564;SDS011;62994;52.126;5.596;2023-02-18T03:27:04;52.97;;;22.52;;
17564;SDS011;62994;52.126;5.596;2023-02-18T03:29:34;45.72;;;20.02;;
17564;SDS011;62994;52.126;5.596;2023-02-18T03:32:04;42.47;;;19.40;;
17564;SDS011;62994;52.126;5.596;2023-02-18T03:34:34;51.95;;;23.95;;
17564;SDS011;62994;52.126;5.596;2023-02-18T03:37:10;43.10;;;19.55;;
17564;SDS011;62994;52.126;5.596;2023-02-18T03:39:40;45.35;;;19.35;;
17564;SDS011;62994;52.126;5.596;2023-02-18T03:42:10;42.33;;;19.10;;
17564;SDS011;62994;52.126;5.596;2023-02-18T03:44:37;42.60;;;18.60;;
17564;SDS011;62994;52.126;5.596;2023-02-18T03:47:04;37.20;;;16.95;;
17564;SDS011;62994;52.126;5.596;2023-02-18T03:49:31;31.65;;;14.98;;
17564;SDS011;62994;52.126;5.596;2023-02-18T03:51:58;28.88;;;14.57;;
17564;SDS011;62994;52.126;5.596;2023-02-18T03:54:27;27.08;;;13.85;;
17564;SDS011;62994;52.126;5.596;2023-02-18T03:56:53;21.75;;;12.20;;
17564;SDS011;62994;52.126;5.596;2023-02-18T03:59:20;23.23;;;12.30;;
17564;SDS011;62994;52.126;5.596;2023-02-18T04:01:56;22.05;;;11.02;;
17564;SDS011;62994;52.126;5.596;2023-02-18T04:04:23;16.17;;;10.23;;
17564;SDS011;62994;52.126;5.596;2023-02-18T04:06:52;23.23;;;11.00;;
17564;SDS011;62994;52.126;5.596;2023-02-18T04:09:19;13.18;;;9.70;;
17564;SDS011;62994;52.126;5.596;2023-02-18T04:11:47;18.05;;;10.30;;
17564;SDS011;62994;52.126;5.596;2023-02-18T04:14:14;16.35;;;9.15;;
17564;SDS011;62994;52.126;5.596;2023-02-18T04:16:41;13.60;;;9.20;;
17564;SDS011;62994;52.126;5.596;2023-02-18T04:19:08;14.30;;;9.35;;
17564;SDS011;62994;52.126;5.596;2023-02-18T04:21:35;13.30;;;8.65;;
17564;SDS011;62994;52.126;5.596;2023-02-18T04:24:02;11.15;;;8.05;;
17564;SDS011;62994;52.126;5.596;2023-02-18T04:26:29;9.25;;;7.70;;
17564;SDS011;62994;52.126;5.596;2023-02-18T04:29:01;12.88;;;9.23;;
17564;SDS011;62994;52.126;5.596;2023-02-18T04:31:28;7.38;;;6.70;;
17564;SDS011;62994;52.126;5.596;2023-02-18T04:33:55;10.27;;;8.02;;
17564;SDS011;62994;52.126;5.596;2023-02-18T04:36:22;7.40;;;6.70;;
17564;SDS011;62994;52.126;5.596;2023-02-18T04:38:49;8.80;;;7.05;;
17564;SDS011;62994;52.126;5.596;2023-02-18T04:41:17;7.35;;;6.65;;
17564;SDS011;62994;52.126;5.596;2023-02-18T04:43:44;6.60;;;5.90;;
17564;SDS011;62994;52.126;5.596;2023-02-18T04:46:13;6.53;;;6.00;;
17564;SDS011;62994;52.126;5.596;2023-02-18T04:48:40;5.75;;;5.25;;
17564;SDS011;62994;52.126;5.596;2023-02-18T04:51:07;5.88;;;5.38;;
17564;SDS011;62994;52.126;5.596;2023-02-18T04:53:34;5.22;;;4.82;;
17564;SDS011;62994;52.126;5.596;2023-02-18T04:56:01;4.78;;;4.47;;
17564;SDS011;62994;52.126;5.596;2023-02-18T04:58:30;5.25;;;4.85;;
17564;SDS011;62994;52.126;5.596;2023-02-18T05:00:57;5.72;;;5.20;;
17564;SDS011;62994;52.126;5.596;2023-02-18T05:03:31;5.65;;;5.25;;
17564;SDS011;62994;52.126;5.596;2023-02-18T05:06:03;5.40;;;5.00;;
17564;SDS011;62994;52.126;5.596;2023-02-18T05:08:36;4.85;;;4.55;;
17564;SDS011;62994;52.126;5.596;2023-02-18T05:11:04;5.25;;;4.85;;
17564;SDS011;62994;52.126;5.596;2023-02-18T05:13:32;4.80;;;4.50;;
17564;SDS011;62994;52.126;5.596;2023-02-18T05:15:59;6.22;;;5.70;;
17564;SDS011;62994;52.126;5.596;2023-02-18T05:18:27;6.35;;;5.90;;
17564;SDS011;62994;52.126;5.596;2023-02-18T05:21:00;6.22;;;5.78;;
17564;SDS011;62994;52.126;5.596;2023-02-18T05:23:29;6.55;;;5.95;;
17564;SDS011;62994;52.126;5.596;2023-02-18T05:25:56;7.82;;;6.80;;
17564;SDS011;62994;52.126;5.596;2023-02-18T05:28:23;6.47;;;5.97;;
17564;SDS011;62994;52.126;5.596;2023-02-18T05:30:50;6.57;;;6.03;;
17564;SDS011;62994;52.126;5.596;2023-02-18T05:33:19;6.40;;;5.78;;
17564;SDS011;62994;52.126;5.596;2023-02-18T05:35:46;6.18;;;5.68;;
17564;SDS011;62994;52.126;5.596;2023-02-18T05:38:15;5.75;;;5.35;;
17564;SDS011;62994;52.126;5.596;2023-02-18T05:40:42;6.07;;;5.57;;
17564;SDS011;62994;52.126;5.596;2023-02-18T05:43:10;5.57;;;5.07;;
17564;SDS011;62994;52.126;5.596;2023-02-18T05:45:37;5.93;;;5.43;;
17564;SDS011;62994;52.126;5.596;2023-02-18T05:48:04;6.30;;;5.80;;
17564;SDS011;62994;52.126;5.596;2023-02-18T05:50:31;6.35;;;5.90;;
17564;SDS011;62994;52.126;5.596;2023-02-18T05:53:03;7.15;;;6.45;;
17564;SDS011;62994;52.126;5.596;2023-02-18T05:55:32;8.02;;;7.32;;
17564;SDS011;62994;52.126;5.596;2023-02-18T05:58:03;7.38;;;6.88;;
17564;SDS011;62994;52.126;5.596;2023-02-18T06:00:30;9.38;;;8.57;;
17564;SDS011;62994;52.126;5.596;2023-02-18T06:02:57;9.65;;;8.75;;
17564;SDS011;62994;52.126;5.596;2023-02-18T06:05:24;12.52;;;9.95;;
17564;SDS011;62994;52.126;5.596;2023-02-18T06:07:51;11.93;;;10.65;;
17564;SDS011;62994;52.126;5.596;2023-02-18T06:10:23;11.73;;;10.52;;
17564;SDS011;62994;52.126;5.596;2023-02-18T06:12:51;13.02;;;10.55;;
17564;SDS011;62994;52.126;5.596;2023-02-18T06:15:21;13.98;;;10.80;;
17564;SDS011;62994;52.126;5.596;2023-02-18T06:17:48;10.32;;;9.32;;
17564;SDS011;62994;52.126;5.596;2023-02-18T06:20:15;11.10;;;10.13;;
17564;SDS011;62994;52.126;5.596;2023-02-18T06:22:42;10.73;;;9.68;;
17564;SDS011;62994;52.126;5.596;2023-02-18T06:25:09;11.98;;;10.75;;
17564;SDS011;62994;52.126;5.596;2023-02-18T06:27:36;11.25;;;10.07;;
17564;SDS011;62994;52.126;5.596;2023-02-18T06:30:05;11.60;;;10.43;;
17564;SDS011;62994;52.126;5.596;2023-02-18T06:32:35;11.05;;;9.98;;
17564;SDS011;62994;52.126;5.596;2023-02-18T06:35:02;13.98;;;12.57;;
17564;SDS011;62994;52.126;5.596;2023-02-18T06:37:29;12.88;;;11.18;;
17564;SDS011;62994;52.126;5.596;2023-02-18T06:39:58;13.93;;;12.18;;
17564;SDS011;62994;52.126;5.596;2023-02-18T06:42:25;15.43;;;12.07;;
17564;SDS011;62994;52.126;5.596;2023-02-18T06:44:52;13.02;;;11.48;;
17564;SDS011;62994;52.126;5.596;2023-02-18T06:47:20;14.32;;;11.40;;
17564;SDS011;62994;52.126;5.596;2023-02-18T06:49:47;11.23;;;10.00;;
17564;SDS011;62994;52.126;5.596;2023-02-18T06:52:15;13.00;;;9.77;;
17564;SDS011;62994;52.126;5.596;2023-02-18T06:54:42;11.43;;;9.73;;
17564;SDS011;62994;52.126;5.596;2023-02-18T06:57:09;10.05;;;9.05;;
17564;SDS011;62994;52.126;5.596;2023-02-18T06:59:36;10.48;;;8.48;;
17564;SDS011;62994;52.126;5.596;2023-02-18T07:02:03;9.63;;;8.32;;
17564;SDS011;62994;52.126;5.596;2023-02-18T07:04:31;10.45;;;8.15;;
17564;SDS011;62994;52.126;5.596;2023-02-18T07:06:58;13.57;;;8.30;;
17564;SDS011;62994;52.126;5.596;2023-02-18T07:09:25;12.73;;;8.60;;
17564;SDS011;62994;52.126;5.596;2023-02-18T07:11:52;9.10;;;8.05;;
17564;SDS011;62994;52.126;5.596;2023-02-18T07:14:19;9.52;;;8.63;;
17564;SDS011;62994;52.126;5.596;2023-02-18T07:16:45;11.85;;;8.52;;
17564;SDS011;62994;52.126;5.596;2023-02-18T07:19:12;14.52;;;8.65;;
17564;SDS011;62994;52.126;5.596;2023-02-18T07:21:41;12.13;;;9.63;;
17564;SDS011;62994;52.126;5.596;2023-02-18T07:24:08;27.17;;;11.18;;
17564;SDS011;62994;52.126;5.596;2023-02-18T07:26:35;21.60;;;11.13;;
17564;SDS011;62994;52.126;5.596;2023-02-18T07:29:02;17.92;;;11.23;;
17564;SDS011;62994;52.126;5.596;2023-02-18T07:31:29;19.00;;;12.32;;
17564;SDS011;62994;52.126;5.596;2023-02-18T07:33:56;18.63;;;13.32;;
17564;SDS011;62994;52.126;5.596;2023-02-18T07:36:28;24.58;;;13.27;;
17564;SDS011;62994;52.126;5.596;2023-02-18T07:39:00;22.65;;;13.13;;
17564;SDS011;62994;52.126;5.596;2023-02-18T07:41:27;15.32;;;11.75;;
17564;SDS011;62994;52.126;5.596;2023-02-18T07:43:56;22.35;;;12.40;;
17564;SDS011;62994;52.126;5.596;2023-02-18T07:46:22;15.10;;;11.48;;
17564;SDS011;62994;52.126;5.596;2023-02-18T07:48:50;15.38;;;10.40;;
17564;SDS011;62994;52.126;5.596;2023-02-18T07:51:21;18.38;;;10.98;;
17564;SDS011;62994;52.126;5.596;2023-02-18T07:53:48;20.48;;;11.85;;
17564;SDS011;62994;52.126;5.596;2023-02-18T07:56:17;14.23;;;10.80;;
17564;SDS011;62994;52.126;5.596;2023-02-18T07:58:44;18.67;;;10.75;;
17564;SDS011;62994;52.126;5.596;2023-02-18T08:01:11;17.02;;;10.93;;
17564;SDS011;62994;52.126;5.596;2023-02-18T08:03:39;21.20;;;10.27;;
17564;SDS011;62994;52.126;5.596;2023-02-18T08:06:07;21.17;;;9.65;;
17564;SDS011;62994;52.126;5.596;2023-02-18T08:08:41;14.35;;;8.70;;
17564;SDS011;62994;52.126;5.596;2023-02-18T08:11:07;15.63;;;8.95;;
17564;SDS011;62994;52.126;5.596;2023-02-18T08:13:36;20.75;;;9.23;;
17564;SDS011;62994;52.126;5.596;2023-02-18T08:16:03;20.42;;;7.63;;
17564;SDS011;62994;52.126;5.596;2023-02-18T08:18:32;19.02;;;8.85;;
17564;SDS011;62994;52.126;5.596;2023-02-18T08:21:05;16.65;;;7.60;;
17564;SDS011;62994;52.126;5.596;2023-02-18T08:23:32;13.52;;;7.82;;
17564;SDS011;62994;52.126;5.596;2023-02-18T08:26:03;26.63;;;8.20;;
17564;SDS011;62994;52.126;5.596;2023-02-18T08:28:30;17.70;;;7.82;;
17564;SDS011;62994;52.126;5.596;2023-02-18T08:30:59;20.58;;;7.05;;
17564;SDS011;62994;52.126;5.596;2023-02-18T08:33:26;15.63;;;5.55;;
17564;SDS011;62994;52.126;5.596;2023-02-18T08:35:53;25.13;;;6.53;;
17564;SDS011;62994;52.126;5.596;2023-02-18T08:38:22;23.75;;;6.03;;
17564;SDS011;62994;52.126;5.596;2023-02-18T08:40:49;22.70;;;6.15;;
17564;SDS011;62994;52.126;5.596;2023-02-18T08:43:26;20.23;;;5.78;;
17564;SDS011;62994;52.126;5.596;2023-02-18T08:45:52;17.08;;;5.32;;
17564;SDS011;62994;52.126;5.596;2023-02-18T08:48:21;20.05;;;4.68;;
17564;SDS011;62994;52.126;5.596;2023-02-18T08:50:48;22.67;;;5.15;;
17564;SDS011;62994;52.126;5.596;2023-02-18T08:53:15;13.15;;;5.03;;
17564;SDS011;62994;52.126;5.596;2023-02-18T08:55:42;18.88;;;4.50;;
17564;SDS011;62994;52.126;5.596;2023-02-18T08:58:14;12.07;;;3.83;;
17564;SDS011;62994;52.126;5.596;2023-02-18T09:00:42;19.63;;;4.43;;
17564;SDS011;62994;52.126;5.596;2023-02-18T09:03:11;17.38;;;4.95;;
17564;SDS011;62994;52.126;5.596;2023-02-18T09:05:40;22.05;;;4.78;;
17564;SDS011;62994;52.126;5.596;2023-02-18T09:08:07;12.23;;;4.20;;
17564;SDS011;62994;52.126;5.596;2023-02-18T09:10:34;19.00;;;4.38;;
17564;SDS011;62994;52.126;5.596;2023-02-18T09:13:01;15.40;;;4.18;;
17564;SDS011;62994;52.126;5.596;2023-02-18T09:15:28;14.57;;;3.83;;
17564;SDS011;62994;52.126;5.596;2023-02-18T09:17:56;13.50;;;3.70;;
17564;SDS011;62994;52.126;5.596;2023-02-18T09:20:23;17.15;;;4.32;;
17564;SDS011;62994;52.126;5.596;2023-02-18T09:22:52;10.93;;;3.88;;
17564;SDS011;62994;52.126;5.596;2023-02-18T09:25:19;12.27;;;4.22;;
17564;SDS011;62994;52.126;5.596;2023-02-18T09:27:46;9.30;;;3.33;;
17564;SDS011;62994;52.126;5.596;2023-02-18T09:30:13;11.48;;;3.28;;
17564;SDS011;62994;52.126;5.596;2023-02-18T09:32:40;12.65;;;4.13;;
17564;SDS011;62994;52.126;5.596;2023-02-18T09:35:07;12.82;;;3.40;;
17564;SDS011;62994;52.126;5.596;2023-02-18T09:37:36;12.27;;;3.75;;
17564;SDS011;62994;52.126;5.596;2023-02-18T09:40:06;11.32;;;3.45;;
17564;SDS011;62994;52.126;5.596;2023-02-18T09:42:34;8.43;;;3.00;;
17564;SDS011;62994;52.126;5.596;2023-02-18T09:45:02;9.00;;;3.22;;
17564;SDS011;62994;52.126;5.596;2023-02-18T09:47:30;14.95;;;3.65;;
17564;SDS011;62994;52.126;5.596;2023-02-18T09:50:03;12.95;;;4.00;;
17564;SDS011;62994;52.126;5.596;2023-02-18T09:52:36;11.05;;;3.22;;
17564;SDS011;62994;52.126;5.596;2023-02-18T09:55:19;8.75;;;2.90;;
17564;SDS011;62994;52.126;5.596;2023-02-18T09:57:49;7.40;;;3.05;;
17564;SDS011;62994;52.126;5.596;2023-02-18T10:00:18;14.20;;;3.10;;
17564;SDS011;62994;52.126;5.596;2023-02-18T10:02:52;14.27;;;3.90;;
17564;SDS011;62994;52.126;5.596;2023-02-18T10:05:21;11.07;;;3.15;;
17564;SDS011;62994;52.126;5.596;2023-02-18T10:07:50;15.52;;;3.75;;
17564;SDS011;62994;52.126;5.596;2023-02-18T10:10:32;15.23;;;3.47;;
17564;SDS011;62994;52.126;5.596;2023-02-18T10:13:06;12.50;;;4.03;;
17564;SDS011;62994;52.126;5.596;2023-02-18T10:15:38;11.00;;;3.60;;
17564;SDS011;62994;52.126;5.596;2023-02-18T10:18:11;9.23;;;3.45;;
17564;SDS011;62994;52.126;5.596;2023-02-18T10:20:47;11.80;;;3.45;;
17564;SDS011;62994;52.126;5.596;2023-02-18T10:23:17;12.02;;;4.30;;
17564;SDS011;62994;52.126;5.596;2023-02-18T10:25:47;15.73;;;4.45;;
17564;SDS011;62994;52.126;5.596;2023-02-18T10:28:15;13.52;;;3.15;;
17564;SDS011;62994;52.126;5.596;2023-02-18T10:30:48;18.73;;;3.88;;
17564;SDS011;62994;52.126;5.596;2023-02-18T10:33:24;12.68;;;4.00;;
17564;SDS011;62994;52.126;5.596;2023-02-18T10:35:59;18.80;;;3.60;;
17564;SDS011;62994;52.126;5.596;2023-02-18T10:38:37;12.93;;;4.00;;
17564;SDS011;62994;52.126;5.596;2023-02-18T10:41:13;13.90;;;3.67;;
17564;SDS011;62994;52.126;5.596;2023-02-18T10:43:48;14.00;;;3.33;;
17564;SDS011;62994;52.126;5.596;2023-02-18T10:46:21;15.52;;;3.47;;
17564;SDS011;62994;52.126;5.596;2023-02-18T10:49:03;12.55;;;3.25;;
17564;SDS011;62994;52.126;5.596;2023-02-18T10:51:43;14.77;;;3.30;;
17564;SDS011;62994;52.126;5.596;2023-02-18T10:54:15;10.63;;;3.58;;
17564;SDS011;62994;52.126;5.596;2023-02-18T10:56:50;13.90;;;3.10;;
17564;SDS011;62994;52.126;5.596;2023-02-18T10:59:18;6.22;;;3.40;;
17564;SDS011;62994;52.126;5.596;2023-02-18T11:01:52;17.75;;;3.28;;
17564;SDS011;62994;52.126;5.596;2023-02-18T11:04:22;13.32;;;3.50;;
17564;SDS011;62994;52.126;5.596;2023-02-18T11:06:52;11.73;;;3.17;;
17564;SDS011;62994;52.126;5.596;2023-02-18T11:09:29;10.30;;;3.50;;
17564;SDS011;62994;52.126;5.596;2023-02-18T11:12:06;16.02;;;3.45;;
17564;SDS011;62994;52.126;5.596;2023-02-18T11:14:41;13.23;;;2.85;;
17564;SDS011;62994;52.126;5.596;2023-02-18T11:17:14;9.30;;;3.22;;
17564;SDS011;62994;52.126;5.596;2023-02-18T11:19:53;13.05;;;3.95;;
17564;SDS011;62994;52.126;5.596;2023-02-18T11:22:22;7.53;;;2.85;;
17564;SDS011;62994;52.126;5.596;2023-02-18T11:24:52;9.95;;;3.25;;
17564;SDS011;62994;52.126;5.596;2023-02-18T11:27:23;11.25;;;3.40;;
17564;SDS011;62994;52.126;5.596;2023-02-18T11:29:55;8.93;;;3.20;;
17564;SDS011;62994;52.126;5.596;2023-02-18T11:32:27;10.38;;;3.92;;
17564;SDS011;62994;52.126;5.596;2023-02-18T11:34:56;7.85;;;3.10;;
17564;SDS011;62994;52.126;5.596;2023-02-18T11:37:23;17.48;;;3.40;;
17564;SDS011;62994;52.126;5.596;2023-02-18T11:39:51;16.00;;;3.72;;
17564;SDS011;62994;52.126;5.596;2023-02-18T11:42:23;15.85;;;3.88;;
17564;SDS011;62994;52.126;5.596;2023-02-18T11:44:53;15.43;;;3.00;;
17564;SDS011;62994;52.126;5.596;2023-02-18T11:47:25;8.75;;;2.88;;
17564;SDS011;62994;52.126;5.596;2023-02-18T11:52:46;11.55;;;3.30;;
17564;SDS011;62994;52.126;5.596;2023-02-18T11:55:16;8.93;;;3.22;;
17564;SDS011;62994;52.126;5.596;2023-02-18T11:57:47;10.48;;;3.13;;
17564;SDS011;62994;52.126;5.596;2023-02-18T12:00:21;11.00;;;3.35;;
17564;SDS011;62994;52.126;5.596;2023-02-18T12:02:52;11.80;;;3.40;;
17564;SDS011;62994;52.126;5.596;2023-02-18T12:05:22;6.40;;;3.22;;
17564;SDS011;62994;52.126;5.596;2023-02-18T12:07:51;10.80;;;4.22;;
17564;SDS011;62994;52.126;5.596;2023-02-18T12:10:25;10.55;;;3.58;;
17564;SDS011;62994;52.126;5.596;2023-02-18T12:12:57;10.82;;;3.65;;
17564;SDS011;62994;52.126;5.596;2023-02-18T12:15:31;12.75;;;3.10;;
17564;SDS011;62994;52.126;5.596;2023-02-18T12:21:14;6.65;;;2.80;;
17564;SDS011;62994;52.126;5.596;2023-02-18T12:23:57;15.38;;;3.88;;
17564;SDS011;62994;52.126;5.596;2023-02-18T12:26:38;9.95;;;3.25;;
17564;SDS011;62994;52.126;5.596;2023-02-18T12:29:30;9.77;;;2.92;;
17564;SDS011;62994;52.126;5.596;2023-02-18T12:32:25;7.63;;;3.55;;
17564;SDS011;62994;52.126;5.596;2023-02-18T12:41:28;9.35;;;3.38;;
17564;SDS011;62994;52.126;5.596;2023-02-18T12:53:10;11.85;;;3.33;;
17564;SDS011;62994;52.126;5.596;2023-02-18T12:56:03;12.07;;;2.75;;
17564;SDS011;62994;52.126;5.596;2023-02-18T12:58:46;8.75;;;2.65;;
17564;SDS011;62994;52.126;5.596;2023-02-18T13:01:22;7.88;;;2.42;;
17564;SDS011;62994;52.126;5.596;2023-02-18T13:04:00;13.52;;;2.92;;
17564;SDS011;62994;52.126;5.596;2023-02-18T13:06:50;8.93;;;2.40;;
17564;SDS011;62994;52.126;5.596;2023-02-18T13:09:29;7.78;;;2.78;;
17564;SDS011;62994;52.126;5.596;2023-02-18T13:12:11;6.57;;;2.42;;
17564;SDS011;62994;52.126;5.596;2023-02-18T13:14:47;9.82;;;2.70;;
17564;SDS011;62994;52.126;5.596;2023-02-18T13:17:24;8.02;;;2.67;;
17564;SDS011;62994;52.126;5.596;2023-02-18T13:19:56;7.43;;;2.35;;
17564;SDS011;62994;52.126;5.596;2023-02-18T13:22:34;4.90;;;2.13;;
17564;SDS011;62994;52.126;5.596;2023-02-18T13:25:01;6.97;;;2.45;;
17564;SDS011;62994;52.126;5.596;2023-02-18T13:27:30;9.02;;;2.42;;
17564;SDS011;62994;52.126;5.596;2023-02-18T13:30:15;6.85;;;2.15;;
17564;SDS011;62994;52.126;5.596;2023-02-18T13:33:00;7.90;;;1.98;;
17564;SDS011;62994;52.126;5.596;2023-02-18T13:35:36;5.35;;;2.03;;
17564;SDS011;62994;52.126;5.596;2023-02-18T13:38:20;5.03;;;2.17;;
17564;SDS011;62994;52.126;5.596;2023-02-18T13:41:08;9.07;;;2.60;;
17564;SDS011;62994;52.126;5.596;2023-02-18T13:43:36;14.93;;;3.22;;
17564;SDS011;62994;52.126;5.596;2023-02-18T13:46:07;9.70;;;2.78;;
17564;SDS011;62994;52.126;5.596;2023-02-18T13:48:39;6.18;;;2.38;;
17564;SDS011;62994;52.126;5.596;2023-02-18T13:51:10;7.28;;;2.20;;
17564;SDS011;62994;52.126;5.596;2023-02-18T13:53:41;6.97;;;2.35;;
17564;SDS011;62994;52.126;5.596;2023-02-18T13:56:18;9.77;;;2.38;;
17564;SDS011;62994;52.126;5.596;2023-02-18T13:58:48;7.47;;;2.20;;
17564;SDS011;62994;52.126;5.596;2023-02-18T14:01:21;5.55;;;2.65;;
17564;SDS011;62994;52.126;5.596;2023-02-18T14:03:58;4.85;;;2.50;;
17564;SDS011;62994;52.126;5.596;2023-02-18T14:06:27;3.95;;;2.28;;
17564;SDS011;62994;52.126;5.596;2023-02-18T14:09:33;6.78;;;2.53;;
17564;SDS011;62994;52.126;5.596;2023-02-18T14:12:25;6.22;;;2.92;;
17564;SDS011;62994;52.126;5.596;2023-02-18T14:18:09;6.03;;;2.08;;
17564;SDS011;62994;52.126;5.596;2023-02-18T14:20:48;4.05;;;1.90;;
17564;SDS011;62994;52.126;5.596;2023-02-18T14:26:29;3.17;;;1.90;;
17564;SDS011;62994;52.126;5.596;2023-02-18T14:28:59;3.85;;;2.00;;
17564;SDS011;62994;52.126;5.596;2023-02-18T14:34:35;4.25;;;2.22;;
17564;SDS011;62994;52.126;5.596;2023-02-18T14:37:37;7.35;;;2.20;;
17564;SDS011;62994;52.126;5.596;2023-02-18T14:40:17;2.25;;;1.70;;
17564;SDS011;62994;52.126;5.596;2023-02-18T14:42:56;2.75;;;1.80;;
17564;SDS011;62994;52.126;5.596;2023-02-18T14:45:38;3.40;;;1.88;;
17564;SDS011;62994;52.126;5.596;2023-02-18T14:48:27;4.47;;;1.85;;
17564;SDS011;62994;52.126;5.596;2023-02-18T14:51:19;3.28;;;2.20;;
17564;SDS011;62994;52.126;5.596;2023-02-18T14:53:49;4.80;;;2.05;;
17564;SDS011;62994;52.126;5.596;2023-02-18T14:56:17;6.72;;;2.40;;
17564;SDS011;62994;52.126;5.596;2023-02-18T14:58:47;5.13;;;1.85;;
17564;SDS011;62994;52.126;5.596;2023-02-18T15:01:21;3.47;;;1.92;;
17564;SDS011;62994;52.126;5.596;2023-02-18T15:03:50;5.60;;;2.17;;
17564;SDS011;62994;52.126;5.596;2023-02-18T15:06:27;3.42;;;1.90;;
17564;SDS011;62994;52.126;5.596;2023-02-18T15:08:55;5.10;;;2.05;;
17564;SDS011;62994;52.126;5.596;2023-02-18T15:11:23;4.20;;;1.98;;
17564;SDS011;62994;52.126;5.596;2023-02-18T15:13:57;2.53;;;1.95;;
17564;SDS011;62994;52.126;5.596;2023-02-18T15:16:25;3.35;;;1.75;;
17564;SDS011;62994;52.126;5.596;2023-02-18T15:18:57;3.83;;;2.00;;
17564;SDS011;62994;52.126;5.596;2023-02-18T15:21:28;5.43;;;2.10;;
17564;SDS011;62994;52.126;5.596;2023-02-18T15:23:57;5.85;;;2.03;;
17564;SDS011;62994;52.126;5.596;2023-02-18T15:26:30;5.53;;;2.13;;
17564;SDS011;62994;52.126;5.596;2023-02-18T15:28:59;3.33;;;2.28;;
17564;SDS011;62994;52.126;5.596;2023-02-18T15:31:28;3.85;;;2.35;;
17564;SDS011;62994;52.126;5.596;2023-02-18T15:33:57;4.15;;;1.98;;